sensor_id;sensor_type;location;lat;lon;timestamp;P1;durP1;ratioP1;P2;durP2;ratioP2
572;SDS011;271;51.114;13.780;2022-11-15T00:00:46;45.13;;;27.42;;
572;SDS011;271;51.114;13.780;2022-11-15T00:03:14;46.42;;;27.95;;
572;SDS011;271;51.114;13.780;2022-11-15T00:05:41;47.20;;;28.30;;
572;SDS011;271;51.114;13.780;2022-11-15T00:08:09;47.83;;;29.40;;
572;SDS011;271;51.114;13.780;2022-11-15T00:10:38;46.57;;;27.40;;
572;SDS011;271;51.114;13.780;2022-11-15T00:13:06;45.42;;;27.02;;
572;SDS011;271;51.114;13.780;2022-11-15T00:15:34;44.03;;;25.80;;
572;SDS011;271;51.114;13.780;2022-11-15T00:18:02;48.63;;;28.08;;
572;SDS011;271;51.114;13.780;2022-11-15T00:20:30;48.85;;;26.85;;
572;SDS011;271;51.114;13.780;2022-11-15T00:22:57;45.83;;;27.75;;
572;SDS011;271;51.114;13.780;2022-11-15T00:25:26;49.20;;;30.17;;
572;SDS011;271;51.114;13.780;2022-11-15T00:27:56;49.53;;;29.95;;
572;SDS011;271;51.114;13.780;2022-11-15T00:33:43;48.30;;;28.55;;
572;SDS011;271;51.114;13.780;2022-11-15T00:36:11;45.03;;;27.48;;
572;SDS011;271;51.114;13.780;2022-11-15T00:38:39;49.63;;;28.33;;
572;SDS011;271;51.114;13.780;2022-11-15T00:41:07;44.75;;;27.25;;
572;SDS011;271;51.114;13.780;2022-11-15T00:43:36;48.00;;;29.83;;
572;SDS011;271;51.114;13.780;2022-11-15T00:46:05;49.78;;;28.95;;
572;SDS011;271;51.114;13.780;2022-11-15T00:48:34;46.65;;;27.23;;
572;SDS011;271;51.114;13.780;2022-11-15T00:51:01;47.50;;;27.35;;
572;SDS011;271;51.114;13.780;2022-11-15T00:53:28;46.78;;;28.83;;
572;SDS011;271;51.114;13.780;2022-11-15T00:55:56;50.10;;;30.02;;
572;SDS011;271;51.114;13.780;2022-11-15T00:58:23;47.03;;;27.38;;
572;SDS011;271;51.114;13.780;2022-11-15T01:00:52;55.03;;;30.90;;
572;SDS011;271;51.114;13.780;2022-11-15T01:03:20;48.42;;;28.25;;
572;SDS011;271;51.114;13.780;2022-11-15T01:05:47;50.38;;;28.25;;
572;SDS011;271;51.114;13.780;2022-11-15T01:08:15;50.83;;;29.27;;
572;SDS011;271;51.114;13.780;2022-11-15T01:10:42;50.60;;;29.27;;
572;SDS011;271;51.114;13.780;2022-11-15T01:13:10;53.67;;;31.80;;
572;SDS011;271;51.114;13.780;2022-11-15T01:15:38;51.55;;;31.33;;
572;SDS011;271;51.114;13.780;2022-11-15T01:18:08;50.22;;;30.35;;
572;SDS011;271;51.114;13.780;2022-11-15T01:20:38;48.95;;;28.63;;
572;SDS011;271;51.114;13.780;2022-11-15T01:23:06;51.63;;;30.70;;
572;SDS011;271;51.114;13.780;2022-11-15T01:25:33;49.95;;;28.52;;
572;SDS011;271;51.114;13.780;2022-11-15T01:28:01;52.47;;;31.25;;
572;SDS011;271;51.114;13.780;2022-11-15T01:30:28;50.78;;;30.15;;
572;SDS011;271;51.114;13.780;2022-11-15T01:32:56;48.25;;;28.55;;
572;SDS011;271;51.114;13.780;2022-11-15T01:35:24;53.65;;;30.65;;
572;SDS011;271;51.114;13.780;2022-11-15T01:37:52;48.30;;;29.48;;
572;SDS011;271;51.114;13.780;2022-11-15T01:40:19;52.03;;;30.10;;
572;SDS011;271;51.114;13.780;2022-11-15T01:42:46;50.85;;;28.77;;
572;SDS011;271;51.114;13.780;2022-11-15T01:45:14;48.63;;;28.58;;
572;SDS011;271;51.114;13.780;2022-11-15T01:47:43;51.50;;;28.77;;
572;SDS011;271;51.114;13.780;2022-11-15T01:50:14;52.75;;;29.77;;
572;SDS011;271;51.114;13.780;2022-11-15T01:52:45;51.05;;;27.50;;
572;SDS011;271;51.114;13.780;2022-11-15T01:55:14;54.22;;;30.60;;
572;SDS011;271;51.114;13.780;2022-11-15T01:57:45;53.90;;;29.88;;
572;SDS011;271;51.114;13.780;2022-11-15T02:00:15;49.88;;;29.33;;
572;SDS011;271;51.114;13.780;2022-11-15T02:02:43;54.22;;;29.92;;
572;SDS011;271;51.114;13.780;2022-11-15T02:05:10;50.85;;;29.17;;
572;SDS011;271;51.114;13.780;2022-11-15T02:07:38;53.50;;;29.98;;
572;SDS011;271;51.114;13.780;2022-11-15T02:10:08;49.80;;;28.02;;
572;SDS011;271;51.114;13.780;2022-11-15T02:12:39;52.20;;;28.40;;
572;SDS011;271;51.114;13.780;2022-11-15T02:15:08;53.63;;;30.23;;
572;SDS011;271;51.114;13.780;2022-11-15T02:17:44;48.70;;;28.17;;
572;SDS011;271;51.114;13.780;2022-11-15T02:26:50;47.65;;;26.40;;
572;SDS011;271;51.114;13.780;2022-11-15T02:29:41;50.38;;;26.52;;
572;SDS011;271;51.114;13.780;2022-11-15T02:32:28;49.13;;;27.88;;
572;SDS011;271;51.114;13.780;2022-11-15T02:35:05;47.22;;;26.10;;
572;SDS011;271;51.114;13.780;2022-11-15T02:37:42;50.42;;;29.48;;
572;SDS011;271;51.114;13.780;2022-11-15T02:40:13;50.58;;;29.33;;
572;SDS011;271;51.114;13.780;2022-11-15T02:42:50;52.33;;;28.23;;
572;SDS011;271;51.114;13.780;2022-11-15T02:45:56;49.08;;;27.35;;
572;SDS011;271;51.114;13.780;2022-11-15T02:48:31;49.85;;;27.65;;
572;SDS011;271;51.114;13.780;2022-11-15T02:51:00;51.00;;;27.50;;
572;SDS011;271;51.114;13.780;2022-11-15T02:53:28;49.20;;;26.63;;
572;SDS011;271;51.114;13.780;2022-11-15T02:55:56;48.38;;;26.27;;
572;SDS011;271;51.114;13.780;2022-11-15T03:01:19;47.42;;;26.05;;
572;SDS011;271;51.114;13.780;2022-11-15T03:03:57;46.78;;;26.20;;
572;SDS011;271;51.114;13.780;2022-11-15T03:06:38;48.03;;;26.77;;
572;SDS011;271;51.114;13.780;2022-11-15T03:09:10;43.08;;;24.90;;
572;SDS011;271;51.114;13.780;2022-11-15T03:11:50;45.25;;;24.30;;
572;SDS011;271;51.114;13.780;2022-11-15T03:14:23;44.95;;;24.88;;
572;SDS011;271;51.114;13.780;2022-11-15T03:16:57;43.28;;;23.08;;
572;SDS011;271;51.114;13.780;2022-11-15T03:19:31;46.28;;;25.00;;
572;SDS011;271;51.114;13.780;2022-11-15T03:22:05;45.72;;;25.40;;
572;SDS011;271;51.114;13.780;2022-11-15T03:24:36;44.25;;;23.77;;
572;SDS011;271;51.114;13.780;2022-11-15T03:27:05;39.92;;;22.50;;
572;SDS011;271;51.114;13.780;2022-11-15T03:29:35;39.15;;;21.83;;
572;SDS011;271;51.114;13.780;2022-11-15T03:32:09;41.90;;;22.98;;
572;SDS011;271;51.114;13.780;2022-11-15T03:34:43;47.00;;;24.77;;
572;SDS011;271;51.114;13.780;2022-11-15T03:37:14;42.15;;;22.58;;
572;SDS011;271;51.114;13.780;2022-11-15T03:39:44;48.50;;;24.33;;
572;SDS011;271;51.114;13.780;2022-11-15T03:42:13;43.97;;;22.05;;
572;SDS011;271;51.114;13.780;2022-11-15T03:44:51;42.85;;;24.65;;
572;SDS011;271;51.114;13.780;2022-11-15T03:47:27;44.97;;;24.60;;
572;SDS011;271;51.114;13.780;2022-11-15T03:50:01;45.53;;;24.00;;
572;SDS011;271;51.114;13.780;2022-11-15T03:52:33;41.03;;;22.35;;
572;SDS011;271;51.114;13.780;2022-11-15T03:55:02;41.80;;;21.75;;
572;SDS011;271;51.114;13.780;2022-11-15T03:57:32;45.60;;;24.45;;
572;SDS011;271;51.114;13.780;2022-11-15T04:00:00;47.00;;;24.60;;
572;SDS011;271;51.114;13.780;2022-11-15T04:02:27;45.65;;;23.50;;
572;SDS011;271;51.114;13.780;2022-11-15T04:04:55;41.58;;;22.67;;
572;SDS011;271;51.114;13.780;2022-11-15T04:07:23;42.78;;;22.17;;
572;SDS011;271;51.114;13.780;2022-11-15T04:09:51;45.30;;;23.38;;
572;SDS011;271;51.114;13.780;2022-11-15T04:12:31;44.50;;;23.48;;
572;SDS011;271;51.114;13.780;2022-11-15T04:14:59;42.85;;;23.23;;
572;SDS011;271;51.114;13.780;2022-11-15T04:17:35;43.42;;;22.38;;
572;SDS011;271;51.114;13.780;2022-11-15T04:20:07;40.25;;;21.20;;
572;SDS011;271;51.114;13.780;2022-11-15T04:22:56;43.78;;;24.48;;
572;SDS011;271;51.114;13.780;2022-11-15T04:25:42;43.67;;;23.35;;
572;SDS011;271;51.114;13.780;2022-11-15T04:28:11;44.67;;;22.98;;
572;SDS011;271;51.114;13.780;2022-11-15T04:30:38;44.78;;;24.08;;
572;SDS011;271;51.114;13.780;2022-11-15T04:33:06;44.47;;;21.80;;
572;SDS011;271;51.114;13.780;2022-11-15T04:35:33;44.22;;;23.58;;
572;SDS011;271;51.114;13.780;2022-11-15T04:38:03;46.33;;;22.10;;
572;SDS011;271;51.114;13.780;2022-11-15T04:40:30;40.25;;;21.55;;
572;SDS011;271;51.114;13.780;2022-11-15T04:42:58;42.05;;;21.95;;
572;SDS011;271;51.114;13.780;2022-11-15T04:45:25;42.40;;;21.73;;
572;SDS011;271;51.114;13.780;2022-11-15T04:47:52;43.00;;;22.80;;
572;SDS011;271;51.114;13.780;2022-11-15T04:50:20;40.75;;;20.92;;
572;SDS011;271;51.114;13.780;2022-11-15T04:52:50;43.85;;;24.00;;
572;SDS011;271;51.114;13.780;2022-11-15T04:55:20;42.22;;;23.13;;
572;SDS011;271;51.114;13.780;2022-11-15T04:57:48;48.03;;;22.52;;
572;SDS011;271;51.114;13.780;2022-11-15T05:00:24;44.10;;;23.73;;
572;SDS011;271;51.114;13.780;2022-11-15T05:02:51;45.13;;;23.17;;
572;SDS011;271;51.114;13.780;2022-11-15T05:05:39;43.95;;;20.20;;
572;SDS011;271;51.114;13.780;2022-11-15T05:08:07;39.65;;;19.30;;
572;SDS011;271;51.114;13.780;2022-11-15T05:10:36;44.30;;;22.08;;
572;SDS011;271;51.114;13.780;2022-11-15T05:13:03;40.85;;;21.48;;
572;SDS011;271;51.114;13.780;2022-11-15T05:15:31;41.85;;;21.15;;
572;SDS011;271;51.114;13.780;2022-11-15T05:17:58;41.92;;;19.48;;
572;SDS011;271;51.114;13.780;2022-11-15T05:20:26;43.72;;;21.63;;
572;SDS011;271;51.114;13.780;2022-11-15T05:22:53;39.85;;;19.88;;
572;SDS011;271;51.114;13.780;2022-11-15T05:25:21;41.70;;;19.40;;
572;SDS011;271;51.114;13.780;2022-11-15T05:27:50;39.60;;;20.45;;
572;SDS011;271;51.114;13.780;2022-11-15T05:30:18;42.78;;;21.55;;
572;SDS011;271;51.114;13.780;2022-11-15T05:32:46;37.53;;;19.45;;
572;SDS011;271;51.114;13.780;2022-11-15T05:35:15;39.38;;;20.05;;
572;SDS011;271;51.114;13.780;2022-11-15T05:37:48;37.88;;;18.75;;
572;SDS011;271;51.114;13.780;2022-11-15T05:40:15;41.15;;;20.42;;
572;SDS011;271;51.114;13.780;2022-11-15T05:45:13;43.42;;;22.90;;
572;SDS011;271;51.114;13.780;2022-11-15T05:47:40;39.65;;;19.00;;
572;SDS011;271;51.114;13.780;2022-11-15T05:50:10;40.30;;;21.42;;
572;SDS011;271;51.114;13.780;2022-11-15T05:52:38;40.80;;;20.55;;
572;SDS011;271;51.114;13.780;2022-11-15T05:55:06;37.88;;;18.70;;
572;SDS011;271;51.114;13.780;2022-11-15T05:57:35;37.65;;;18.40;;
572;SDS011;271;51.114;13.780;2022-11-15T06:00:03;42.42;;;19.55;;
572;SDS011;271;51.114;13.780;2022-11-15T06:02:33;40.08;;;20.17;;
572;SDS011;271;51.114;13.780;2022-11-15T06:05:01;41.70;;;22.05;;
572;SDS011;271;51.114;13.780;2022-11-15T06:07:28;42.08;;;20.98;;
572;SDS011;271;51.114;13.780;2022-11-15T06:09:56;41.45;;;19.42;;
572;SDS011;271;51.114;13.780;2022-11-15T06:12:23;39.58;;;18.55;;
572;SDS011;271;51.114;13.780;2022-11-15T06:14:51;39.30;;;18.92;;
572;SDS011;271;51.114;13.780;2022-11-15T06:17:18;41.60;;;21.15;;
572;SDS011;271;51.114;13.780;2022-11-15T06:19:47;42.42;;;22.38;;
572;SDS011;271;51.114;13.780;2022-11-15T06:22:14;43.17;;;21.52;;
572;SDS011;271;51.114;13.780;2022-11-15T06:24:42;42.55;;;21.25;;
572;SDS011;271;51.114;13.780;2022-11-15T06:27:10;41.63;;;19.55;;
572;SDS011;271;51.114;13.780;2022-11-15T06:29:37;43.17;;;20.85;;
572;SDS011;271;51.114;13.780;2022-11-15T06:32:05;44.72;;;22.40;;
572;SDS011;271;51.114;13.780;2022-11-15T06:34:32;41.20;;;21.15;;
572;SDS011;271;51.114;13.780;2022-11-15T06:37:03;42.55;;;20.13;;
572;SDS011;271;51.114;13.780;2022-11-15T06:39:30;44.47;;;22.20;;
572;SDS011;271;51.114;13.780;2022-11-15T06:41:58;40.80;;;21.02;;
572;SDS011;271;51.114;13.780;2022-11-15T06:44:25;42.88;;;20.75;;
572;SDS011;271;51.114;13.780;2022-11-15T06:46:52;42.65;;;22.20;;
572;SDS011;271;51.114;13.780;2022-11-15T06:49:20;42.85;;;22.60;;
572;SDS011;271;51.114;13.780;2022-11-15T06:51:47;48.45;;;24.17;;
572;SDS011;271;51.114;13.780;2022-11-15T06:54:16;46.65;;;23.10;;
572;SDS011;271;51.114;13.780;2022-11-15T06:56:43;52.00;;;25.98;;
572;SDS011;271;51.114;13.780;2022-11-15T06:59:11;50.30;;;24.88;;
572;SDS011;271;51.114;13.780;2022-11-15T07:01:38;46.15;;;23.33;;
572;SDS011;271;51.114;13.780;2022-11-15T07:04:11;49.33;;;24.50;;
572;SDS011;271;51.114;13.780;2022-11-15T07:06:39;49.88;;;27.23;;
572;SDS011;271;51.114;13.780;2022-11-15T07:09:06;44.60;;;23.48;;
572;SDS011;271;51.114;13.780;2022-11-15T07:11:35;45.92;;;25.33;;
572;SDS011;271;51.114;13.780;2022-11-15T07:14:02;43.45;;;24.38;;
572;SDS011;271;51.114;13.780;2022-11-15T07:16:30;48.72;;;24.05;;
572;SDS011;271;51.114;13.780;2022-11-15T07:18:57;43.92;;;22.75;;
572;SDS011;271;51.114;13.780;2022-11-15T07:21:25;43.20;;;23.73;;
572;SDS011;271;51.114;13.780;2022-11-15T07:23:52;41.63;;;20.83;;
572;SDS011;271;51.114;13.780;2022-11-15T07:26:20;42.13;;;22.85;;
572;SDS011;271;51.114;13.780;2022-11-15T07:28:48;41.90;;;20.98;;
572;SDS011;271;51.114;13.780;2022-11-15T07:31:16;39.15;;;21.25;;
572;SDS011;271;51.114;13.780;2022-11-15T07:33:43;42.95;;;20.42;;
572;SDS011;271;51.114;13.780;2022-11-15T07:36:10;43.80;;;21.67;;
572;SDS011;271;51.114;13.780;2022-11-15T07:38:38;44.03;;;21.65;;
572;SDS011;271;51.114;13.780;2022-11-15T07:41:05;37.65;;;19.15;;
572;SDS011;271;51.114;13.780;2022-11-15T07:43:33;43.63;;;20.25;;
572;SDS011;271;51.114;13.780;2022-11-15T07:46:05;43.22;;;21.15;;
572;SDS011;271;51.114;13.780;2022-11-15T07:48:34;42.17;;;20.90;;
572;SDS011;271;51.114;13.780;2022-11-15T07:51:02;41.28;;;21.58;;
572;SDS011;271;51.114;13.780;2022-11-15T07:53:30;40.15;;;20.40;;
572;SDS011;271;51.114;13.780;2022-11-15T07:55:57;43.38;;;19.63;;
572;SDS011;271;51.114;13.780;2022-11-15T07:58:24;37.00;;;18.27;;
572;SDS011;271;51.114;13.780;2022-11-15T08:00:52;42.20;;;19.20;;
572;SDS011;271;51.114;13.780;2022-11-15T08:03:20;43.35;;;19.67;;
572;SDS011;271;51.114;13.780;2022-11-15T08:05:49;38.03;;;19.10;;
572;SDS011;271;51.114;13.780;2022-11-15T08:08:17;40.97;;;20.00;;
572;SDS011;271;51.114;13.780;2022-11-15T08:10:45;37.20;;;19.38;;
572;SDS011;271;51.114;13.780;2022-11-15T08:13:12;37.92;;;19.38;;
572;SDS011;271;51.114;13.780;2022-11-15T08:15:40;36.30;;;18.25;;
572;SDS011;271;51.114;13.780;2022-11-15T08:18:09;38.65;;;19.65;;
572;SDS011;271;51.114;13.780;2022-11-15T08:20:39;34.95;;;17.65;;
572;SDS011;271;51.114;13.780;2022-11-15T08:23:07;34.28;;;17.10;;
572;SDS011;271;51.114;13.780;2022-11-15T08:25:36;33.65;;;16.55;;
572;SDS011;271;51.114;13.780;2022-11-15T08:28:05;35.37;;;16.23;;
572;SDS011;271;51.114;13.780;2022-11-15T08:30:35;32.30;;;14.90;;
572;SDS011;271;51.114;13.780;2022-11-15T08:33:09;31.53;;;14.43;;
572;SDS011;271;51.114;13.780;2022-11-15T08:35:38;31.80;;;14.00;;
572;SDS011;271;51.114;13.780;2022-11-15T08:38:10;30.53;;;14.40;;
572;SDS011;271;51.114;13.780;2022-11-15T08:40:37;29.20;;;13.40;;
572;SDS011;271;51.114;13.780;2022-11-15T08:43:05;32.13;;;15.70;;
572;SDS011;271;51.114;13.780;2022-11-15T08:45:33;28.27;;;13.90;;
572;SDS011;271;51.114;13.780;2022-11-15T08:48:02;27.90;;;13.33;;
572;SDS011;271;51.114;13.780;2022-11-15T08:50:30;29.33;;;14.53;;
572;SDS011;271;51.114;13.780;2022-11-15T08:53:02;29.03;;;12.67;;
572;SDS011;271;51.114;13.780;2022-11-15T08:55:31;27.73;;;12.93;;
572;SDS011;271;51.114;13.780;2022-11-15T08:57:58;29.63;;;13.87;;
572;SDS011;271;51.114;13.780;2022-11-15T09:00:26;29.90;;;13.90;;
572;SDS011;271;51.114;13.780;2022-11-15T09:02:53;29.17;;;14.23;;
572;SDS011;271;51.114;13.780;2022-11-15T09:05:20;28.57;;;13.57;;
572;SDS011;271;51.114;13.780;2022-11-15T09:07:52;25.10;;;11.63;;
572;SDS011;271;51.114;13.780;2022-11-15T09:10:21;26.13;;;11.40;;
572;SDS011;271;51.114;13.780;2022-11-15T09:12:48;26.40;;;11.70;;
572;SDS011;271;51.114;13.780;2022-11-15T09:15:18;26.40;;;11.90;;
572;SDS011;271;51.114;13.780;2022-11-15T09:17:46;26.00;;;10.60;;
572;SDS011;271;51.114;13.780;2022-11-15T09:20:13;26.37;;;12.50;;
572;SDS011;271;51.114;13.780;2022-11-15T09:22:41;25.63;;;11.20;;
572;SDS011;271;51.114;13.780;2022-11-15T09:25:09;25.37;;;11.17;;
572;SDS011;271;51.114;13.780;2022-11-15T09:27:38;28.77;;;12.70;;
572;SDS011;271;51.114;13.780;2022-11-15T09:30:05;26.93;;;12.13;;
572;SDS011;271;51.114;13.780;2022-11-15T09:32:33;27.30;;;12.17;;
572;SDS011;271;51.114;13.780;2022-11-15T09:35:01;27.83;;;11.93;;
572;SDS011;271;51.114;13.780;2022-11-15T09:37:28;27.57;;;11.57;;
572;SDS011;271;51.114;13.780;2022-11-15T09:39:58;23.63;;;11.07;;
572;SDS011;271;51.114;13.780;2022-11-15T09:42:32;25.07;;;11.07;;
572;SDS011;271;51.114;13.780;2022-11-15T09:45:22;23.70;;;10.93;;
572;SDS011;271;51.114;13.780;2022-11-15T09:51:08;24.83;;;10.37;;
572;SDS011;271;51.114;13.780;2022-11-15T09:53:42;25.40;;;11.47;;
572;SDS011;271;51.114;13.780;2022-11-15T09:56:16;26.00;;;12.07;;
572;SDS011;271;51.114;13.780;2022-11-15T09:58:54;25.47;;;11.37;;
572;SDS011;271;51.114;13.780;2022-11-15T10:01:31;24.47;;;10.77;;
572;SDS011;271;51.114;13.780;2022-11-15T10:04:05;24.57;;;10.80;;
572;SDS011;271;51.114;13.780;2022-11-15T10:06:34;24.30;;;10.43;;
572;SDS011;271;51.114;13.780;2022-11-15T10:09:12;26.90;;;12.50;;
572;SDS011;271;51.114;13.780;2022-11-15T10:11:42;24.07;;;10.20;;
572;SDS011;271;51.114;13.780;2022-11-15T10:14:12;25.40;;;11.67;;
572;SDS011;271;51.114;13.780;2022-11-15T10:16:48;24.13;;;11.10;;
572;SDS011;271;51.114;13.780;2022-11-15T10:19:26;23.30;;;10.37;;
572;SDS011;271;51.114;13.780;2022-11-15T10:22:05;25.93;;;10.50;;
572;SDS011;271;51.114;13.780;2022-11-15T10:24:42;25.73;;;10.40;;
572;SDS011;271;51.114;13.780;2022-11-15T10:27:11;25.90;;;11.50;;
572;SDS011;271;51.114;13.780;2022-11-15T10:29:43;24.63;;;11.50;;
572;SDS011;271;51.114;13.780;2022-11-15T10:32:13;25.90;;;11.80;;
572;SDS011;271;51.114;13.780;2022-11-15T10:34:42;25.67;;;11.60;;
572;SDS011;271;51.114;13.780;2022-11-15T10:37:09;25.30;;;10.80;;
572;SDS011;271;51.114;13.780;2022-11-15T10:39:37;24.93;;;11.77;;
572;SDS011;271;51.114;13.780;2022-11-15T10:42:18;22.77;;;10.00;;
572;SDS011;271;51.114;13.780;2022-11-15T10:44:54;24.00;;;10.60;;
572;SDS011;271;51.114;13.780;2022-11-15T10:47:25;26.03;;;9.60;;
572;SDS011;271;51.114;13.780;2022-11-15T10:50:00;25.50;;;10.70;;
572;SDS011;271;51.114;13.780;2022-11-15T10:52:30;25.23;;;11.07;;
572;SDS011;271;51.114;13.780;2022-11-15T10:55:02;25.27;;;11.60;;
572;SDS011;271;51.114;13.780;2022-11-15T10:57:33;22.80;;;9.00;;
572;SDS011;271;51.114;13.780;2022-11-15T11:00:06;23.30;;;9.93;;
572;SDS011;271;51.114;13.780;2022-11-15T11:02:58;25.80;;;11.10;;
572;SDS011;271;51.114;13.780;2022-11-15T11:05:29;25.27;;;9.87;;
572;SDS011;271;51.114;13.780;2022-11-15T11:08:01;24.87;;;10.73;;
572;SDS011;271;51.114;13.780;2022-11-15T11:10:30;23.57;;;9.50;;
572;SDS011;271;51.114;13.780;2022-11-15T11:13:12;24.80;;;9.10;;
572;SDS011;271;51.114;13.780;2022-11-15T11:15:42;23.63;;;9.90;;
572;SDS011;271;51.114;13.780;2022-11-15T11:18:14;24.50;;;11.70;;
572;SDS011;271;51.114;13.780;2022-11-15T11:20:53;23.83;;;10.20;;
572;SDS011;271;51.114;13.780;2022-11-15T11:23:33;23.67;;;10.73;;
572;SDS011;271;51.114;13.780;2022-11-15T11:26:15;25.77;;;12.03;;
572;SDS011;271;51.114;13.780;2022-11-15T11:29:06;26.83;;;11.40;;
572;SDS011;271;51.114;13.780;2022-11-15T11:31:57;27.63;;;11.80;;
572;SDS011;271;51.114;13.780;2022-11-15T11:34:33;23.40;;;10.10;;
572;SDS011;271;51.114;13.780;2022-11-15T11:37:14;24.80;;;10.90;;
572;SDS011;271;51.114;13.780;2022-11-15T11:39:51;25.50;;;10.63;;
572;SDS011;271;51.114;13.780;2022-11-15T11:42:30;24.37;;;10.93;;
572;SDS011;271;51.114;13.780;2022-11-15T11:45:06;23.13;;;9.40;;
572;SDS011;271;51.114;13.780;2022-11-15T11:47:46;24.97;;;9.00;;
572;SDS011;271;51.114;13.780;2022-11-15T11:50:18;24.30;;;9.97;;
572;SDS011;271;51.114;13.780;2022-11-15T11:52:54;23.53;;;10.10;;
572;SDS011;271;51.114;13.780;2022-11-15T11:55:25;25.80;;;10.97;;
572;SDS011;271;51.114;13.780;2022-11-15T11:58:04;22.43;;;9.33;;
572;SDS011;271;51.114;13.780;2022-11-15T12:00:38;26.63;;;10.40;;
572;SDS011;271;51.114;13.780;2022-11-15T12:03:12;23.50;;;10.00;;
572;SDS011;271;51.114;13.780;2022-11-15T12:05:46;23.63;;;9.63;;
572;SDS011;271;51.114;13.780;2022-11-15T12:08:22;26.63;;;10.40;;
572;SDS011;271;51.114;13.780;2022-11-15T12:11:00;32.20;;;10.10;;
572;SDS011;271;51.114;13.780;2022-11-15T12:13:35;22.70;;;8.93;;
572;SDS011;271;51.114;13.780;2022-11-15T12:16:06;24.20;;;9.60;;
572;SDS011;271;51.114;13.780;2022-11-15T12:18:43;26.40;;;10.80;;
572;SDS011;271;51.114;13.780;2022-11-15T12:21:16;25.10;;;9.50;;
572;SDS011;271;51.114;13.780;2022-11-15T12:23:49;24.67;;;10.57;;
572;SDS011;271;51.114;13.780;2022-11-15T12:26:24;23.87;;;9.80;;
572;SDS011;271;51.114;13.780;2022-11-15T12:28:57;23.33;;;9.63;;
572;SDS011;271;51.114;13.780;2022-11-15T12:31:29;21.93;;;8.80;;
572;SDS011;271;51.114;13.780;2022-11-15T12:34:05;27.20;;;10.87;;
572;SDS011;271;51.114;13.780;2022-11-15T12:36:43;24.33;;;9.73;;
572;SDS011;271;51.114;13.780;2022-11-15T12:39:11;23.77;;;9.37;;
572;SDS011;271;51.114;13.780;2022-11-15T12:41:41;23.10;;;9.77;;
572;SDS011;271;51.114;13.780;2022-11-15T12:44:10;23.47;;;9.10;;
572;SDS011;271;51.114;13.780;2022-11-15T12:49:50;22.73;;;8.87;;
572;SDS011;271;51.114;13.780;2022-11-15T12:52:18;23.77;;;9.77;;
572;SDS011;271;51.114;13.780;2022-11-15T12:54:59;23.80;;;10.30;;
572;SDS011;271;51.114;13.780;2022-11-15T12:57:32;23.10;;;9.10;;
572;SDS011;271;51.114;13.780;2022-11-15T13:06:39;25.40;;;9.33;;
572;SDS011;271;51.114;13.780;2022-11-15T13:12:07;24.57;;;10.73;;
572;SDS011;271;51.114;13.780;2022-11-15T13:14:49;23.13;;;10.20;;
572;SDS011;271;51.114;13.780;2022-11-15T13:17:25;24.63;;;10.30;;
572;SDS011;271;51.114;13.780;2022-11-15T13:20:18;23.90;;;9.80;;
572;SDS011;271;51.114;13.780;2022-11-15T13:22:49;24.77;;;10.30;;
572;SDS011;271;51.114;13.780;2022-11-15T13:25:52;24.30;;;10.20;;
572;SDS011;271;51.114;13.780;2022-11-15T13:28:48;24.03;;;9.43;;
572;SDS011;271;51.114;13.780;2022-11-15T13:31:27;25.50;;;10.10;;
572;SDS011;271;51.114;13.780;2022-11-15T13:33:59;24.37;;;9.70;;
572;SDS011;271;51.114;13.780;2022-11-15T13:36:28;24.40;;;10.00;;
572;SDS011;271;51.114;13.780;2022-11-15T13:39:01;23.37;;;9.83;;
572;SDS011;271;51.114;13.780;2022-11-15T13:41:31;26.17;;;10.57;;
572;SDS011;271;51.114;13.780;2022-11-15T13:44:00;28.10;;;10.77;;
572;SDS011;271;51.114;13.780;2022-11-15T13:46:28;25.07;;;10.70;;
572;SDS011;271;51.114;13.780;2022-11-15T13:48:59;24.70;;;10.37;;
572;SDS011;271;51.114;13.780;2022-11-15T13:51:30;25.40;;;10.87;;
572;SDS011;271;51.114;13.780;2022-11-15T13:54:06;24.70;;;10.40;;
572;SDS011;271;51.114;13.780;2022-11-15T13:56:39;26.53;;;11.03;;
572;SDS011;271;51.114;13.780;2022-11-15T13:59:18;24.03;;;10.90;;
572;SDS011;271;51.114;13.780;2022-11-15T14:01:50;25.77;;;10.90;;
572;SDS011;271;51.114;13.780;2022-11-15T14:04:19;25.97;;;11.23;;
572;SDS011;271;51.114;13.780;2022-11-15T14:06:50;24.20;;;10.27;;
572;SDS011;271;51.114;13.780;2022-11-15T14:09:30;26.47;;;10.87;;
572;SDS011;271;51.114;13.780;2022-11-15T14:12:00;26.17;;;11.83;;
572;SDS011;271;51.114;13.780;2022-11-15T14:14:29;27.30;;;11.70;;
572;SDS011;271;51.114;13.780;2022-11-15T14:17:01;26.43;;;11.87;;
572;SDS011;271;51.114;13.780;2022-11-15T14:19:38;25.87;;;11.10;;
572;SDS011;271;51.114;13.780;2022-11-15T14:28:09;27.17;;;11.70;;
572;SDS011;271;51.114;13.780;2022-11-15T14:30:46;25.87;;;11.90;;
572;SDS011;271;51.114;13.780;2022-11-15T14:33:21;27.77;;;12.23;;
572;SDS011;271;51.114;13.780;2022-11-15T14:35:50;28.30;;;11.53;;
572;SDS011;271;51.114;13.780;2022-11-15T14:38:19;29.73;;;12.70;;
572;SDS011;271;51.114;13.780;2022-11-15T14:40:49;28.03;;;13.43;;
572;SDS011;271;51.114;13.780;2022-11-15T14:43:16;30.17;;;13.20;;
572;SDS011;271;51.114;13.780;2022-11-15T14:45:44;30.63;;;13.50;;
572;SDS011;271;51.114;13.780;2022-11-15T14:48:11;28.33;;;12.63;;
572;SDS011;271;51.114;13.780;2022-11-15T14:50:38;29.27;;;12.43;;
572;SDS011;271;51.114;13.780;2022-11-15T14:53:06;28.43;;;12.10;;
572;SDS011;271;51.114;13.780;2022-11-15T14:55:38;28.47;;;11.83;;
572;SDS011;271;51.114;13.780;2022-11-15T14:58:07;29.73;;;13.67;;
572;SDS011;271;51.114;13.780;2022-11-15T15:00:35;29.23;;;12.47;;
572;SDS011;271;51.114;13.780;2022-11-15T15:03:04;30.92;;;13.95;;
572;SDS011;271;51.114;13.780;2022-11-15T15:05:32;29.40;;;13.43;;
572;SDS011;271;51.114;13.780;2022-11-15T15:08:01;31.03;;;13.90;;
572;SDS011;271;51.114;13.780;2022-11-15T15:10:30;31.27;;;14.20;;
572;SDS011;271;51.114;13.780;2022-11-15T15:12:59;30.08;;;13.48;;
572;SDS011;271;51.114;13.780;2022-11-15T15:15:31;26.90;;;12.60;;
572;SDS011;271;51.114;13.780;2022-11-15T15:17:59;29.40;;;13.70;;
572;SDS011;271;51.114;13.780;2022-11-15T15:20:27;29.40;;;12.27;;
572;SDS011;271;51.114;13.780;2022-11-15T15:22:55;30.80;;;13.40;;
572;SDS011;271;51.114;13.780;2022-11-15T15:25:26;29.57;;;13.87;;
572;SDS011;271;51.114;13.780;2022-11-15T15:27:54;32.60;;;15.37;;
572;SDS011;271;51.114;13.780;2022-11-15T15:30:22;31.02;;;14.40;;
572;SDS011;271;51.114;13.780;2022-11-15T15:32:52;31.47;;;14.70;;
572;SDS011;271;51.114;13.780;2022-11-15T15:35:20;32.03;;;14.55;;
572;SDS011;271;51.114;13.780;2022-11-15T15:37:48;32.78;;;15.02;;
572;SDS011;271;51.114;13.780;2022-11-15T15:40:17;35.95;;;16.00;;
572;SDS011;271;51.114;13.780;2022-11-15T15:42:52;35.33;;;17.17;;
572;SDS011;271;51.114;13.780;2022-11-15T15:45:20;54.28;;;43.85;;
572;SDS011;271;51.114;13.780;2022-11-15T15:47:48;45.63;;;25.25;;
572;SDS011;271;51.114;13.780;2022-11-15T15:50:23;32.75;;;15.00;;
572;SDS011;271;51.114;13.780;2022-11-15T15:52:53;38.75;;;18.33;;
572;SDS011;271;51.114;13.780;2022-11-15T15:55:21;32.55;;;14.68;;
572;SDS011;271;51.114;13.780;2022-11-15T15:57:49;31.40;;;14.63;;
572;SDS011;271;51.114;13.780;2022-11-15T16:00:17;35.78;;;19.48;;
572;SDS011;271;51.114;13.780;2022-11-15T16:02:46;32.63;;;16.75;;